This is the latest recevied weather packets stored in our database for station/object VK6DUG. If no packets are shown the sender has not sent any weather packets the latest 10 day(s).
| Time | Temp. | Humidity | Pressure | Rain* | Wind** | Luminosity | Snow |
|---|---|---|---|---|---|---|---|
| 1778200222 | 15° C | 73% | 1033.7 hPa | 0 mm | - | 100 W/m² | - |
| 1778199619 | 15° C | 74% | 1033.7 hPa | 0 mm | - | 69 W/m² | - |
| 1778199034 | 13.89° C | 76% | 1033.7 hPa | 0 mm | - | 55 W/m² | - |
| 1778198432 | 13.33° C | 79% | 1033.6 hPa | 0 mm | - | 48 W/m² | - |
| 1778197830 | 12.78° C | 80% | 1033.6 hPa | 0 mm | - | 29 W/m² | - |
| 1778197227 | 12.22° C | 81% | 1033.4 hPa | 0 mm | - | 22 W/m² | - |
| 1778196624 | 11.67° C | 81% | 1033.4 hPa | 0 mm | - | 19 W/m² | - |
| 1778196021 | 11.67° C | 82% | 1033.3 hPa | 0 mm | - | 15 W/m² | - |
| 1778195418 | 11.67° C | 83% | 1033.1 hPa | 0 mm | - | 10 W/m² | - |
| 1778194835 | 11.11° C | 84% | 1032.9 hPa | 0 mm | - | 5 W/m² | - |
| 1778194232 | 10.56° C | 83% | 1032.8 hPa | 0 mm | - | 2 W/m² | - |
| 1778193630 | 10.56° C | 83% | 1032.8 hPa | 0 mm | - | 0 W/m² | - |
| 1778193027 | 10° C | 82% | 1032.8 hPa | 0 mm | - | 0 W/m² | - |
| 1778192424 | 10.56° C | 80% | 1033 hPa | 0 mm | - | 0 W/m² | - |
| 1778191822 | 10.56° C | 79% | 1032.9 hPa | 0 mm | - | 0 W/m² | - |
| 1778191219 | 11.11° C | 77% | 1032.9 hPa | 0 mm | - | 0 W/m² | - |
| 1778190617 | 11.11° C | 77% | 1032.8 hPa | 0 mm | - | 0 W/m² | - |
| 1778190033 | 11.67° C | 77% | 1032.9 hPa | 0 mm | - | 0 W/m² | - |
| 1778189431 | 11.67° C | 77% | 1032.8 hPa | 0 mm | - | 0 W/m² | - |
| 1778188826 | 12.22° C | 76% | 1032.8 hPa | 0 mm | - | 0 W/m² | - |
| 1778188222 | 11.67° C | 76% | 1032.8 hPa | 0 mm | - | 0 W/m² | - |
| 1778187635 | 12.22° C | 75% | 1032.8 hPa | 0 mm | - | 0 W/m² | - |
| 1778187032 | 12.22° C | 75% | 1032.6 hPa | 0 mm | - | 0 W/m² | - |
| 1778186427 | 12.22° C | 74% | 1032.7 hPa | 0 mm | - | 0 W/m² | - |
| 1778185820 | 12.78° C | 74% | 1032.6 hPa | 0 mm | - | 0 W/m² | - |
* Rain latest hour (hover to see other rain measurements)
** Current wind speed in m/s (hover to see current wind gust speed)